Cohoctah, Michigan
Current Conditions -  °F | °C
As of 1:15 AM on Wednesday 22 Oct 2014 (Local Time) from KOZW Reporting Station
Overcast Overcast  
Wind Chill: 36°   Ceiling: 1800
Heat Index: 40°   Visibility: 10mi
Dew Point: 36°   Wind: 6mph
Humidity: 84%   Direction: 340°NNW
Pressure: 30.23"   Gusts: NA
Location:  42.76°N, 83.95°W
Report Text: KOZW 220515Z AUTO 34005KT 10SM BKN018 OVC031 05/02 A3023 RMK AO2 T00450020
Loading
Personal Weather Stations






























Interactive Weather Map
Tropical Storm Tracking
New forecast layout! Learn more

10-Day Weather Forecast

Advertisements
Track Severe Weather on mobile